Kingsgate, Washington
Current Conditions -  °F | °C
As of 7:53 PM on Friday 19 Dec 2014 (Local Time) from KBFI Reporting Station
Few Clouds Few Clouds  
Wind Chill:   Ceiling: Unl
Heat Index:   Visibility: 10mi
Dew Point:   Wind: 8mph
Humidity: 66%   Direction: 140°SE
Pressure: 29.93"   Gusts: NA
Location:  47.7179°N, 122.204°W
Report Text: KBFI 200353Z 14007KT 10SM FEW060 09/03 A2993 RMK AO2 SLP136 T00940033
Loading
Personal Weather Stations






























Interactive Weather Map New forecast layout! Learn more

10-Day Weather Forecast

Advertisements
Track Severe Weather on mobile